createdAt,value
2023-03-22T00:00:19.207Z,100377.27
2023-03-22T00:02:46.767Z,100377.27
2023-03-22T00:05:13.867Z,100374.27
2023-03-22T00:08:00.546Z,100376.83
2023-03-22T00:10:30.169Z,100376.93
2023-03-22T00:12:57.093Z,100378.27
2023-03-22T00:15:25.930Z,100380.88
2023-03-22T00:17:52.756Z,100377.46
2023-03-22T00:20:23.085Z,100380.71
2023-03-22T00:22:50.893Z,100376.75
2023-03-22T00:25:20.593Z,100379.31
2023-03-22T00:27:49.066Z,100382.98
2023-03-22T00:30:16.279Z,100379.04
2023-03-22T00:32:43.993Z,100377.91
2023-03-22T00:35:11.887Z,100373.04
2023-03-22T00:37:39.203Z,100371.59
2023-03-22T00:40:10.751Z,100377.73
2023-03-22T00:42:38.710Z,100377.39
2023-03-22T00:45:07.633Z,100375.99
2023-03-22T00:47:34.879Z,100378.39
2023-03-22T00:50:07.267Z,100377.16
2023-03-22T00:52:34.292Z,100375.30
2023-03-22T00:55:02.405Z,100377.33
2023-03-22T00:57:29.933Z,100377.42
2023-03-22T00:59:57.807Z,100375.89
2023-03-22T01:02:29.556Z,100374.64
2023-03-22T01:04:57.360Z,100375.39
2023-03-22T01:07:24.299Z,100374.70
2023-03-22T01:09:51.857Z,100375.88
2023-03-22T01:12:18.848Z,100377.42
2023-03-22T01:14:45.906Z,100376.84
2023-03-22T01:17:17.985Z,100377.48
2023-03-22T01:19:55.750Z,100373.63
2023-03-22T01:22:24.018Z,100378.52
2023-03-22T01:24:55.426Z,100380.73
2023-03-22T01:27:47.525Z,100381.00
2023-03-22T01:30:15.863Z,100383.44
2023-03-22T01:32:44.903Z,100379.84
2023-03-22T01:35:12.580Z,100381.98
2023-03-22T01:37:40.996Z,100386.24
2023-03-22T01:40:17.223Z,100392.12
2023-03-22T01:43:26.356Z,100394.77
2023-03-22T01:45:55.920Z,100395.73
2023-03-22T01:48:27.818Z,100403.30
2023-03-22T01:51:09.796Z,100405.05
2023-03-22T01:53:54.236Z,100404.38
2023-03-22T01:56:24.407Z,100406.04
2023-03-22T01:58:51.295Z,100405.69
2023-03-22T02:01:20.569Z,100404.70
2023-03-22T02:03:51.881Z,100404.25
2023-03-22T02:06:19.006Z,100406.84
2023-03-22T02:08:47.159Z,100414.20
2023-03-22T02:11:27.607Z,100414.06
2023-03-22T02:14:19.243Z,100412.54
2023-03-22T02:17:27.636Z,100413.39
2023-03-22T02:20:24.025Z,100416.63
2023-03-22T02:23:16.398Z,100422.33
2023-03-22T02:26:06.889Z,100422.41
2023-03-22T02:28:58.331Z,100421.04
2023-03-22T02:31:46.829Z,100426.16
2023-03-22T02:34:28.183Z,100425.89
2023-03-22T02:37:11.056Z,100426.32
2023-03-22T02:39:56.486Z,100430.02
2023-03-22T02:42:45.713Z,100427.99
2023-03-22T02:45:22.430Z,100431.02
2023-03-22T02:48:18.499Z,100429.98
2023-03-22T02:51:07.832Z,100430.90
2023-03-22T02:53:40.287Z,100430.90
2023-03-22T02:56:19.353Z,100432.99
2023-03-22T02:58:48.590Z,100433.27
2023-03-22T03:01:26.695Z,100436.30
2023-03-22T03:03:56.854Z,100440.13
2023-03-22T03:06:29.170Z,100441.07
2023-03-22T03:08:57.628Z,100441.98
2023-03-22T03:11:27.876Z,100447.89
2023-03-22T03:13:55.808Z,100449.45
2023-03-22T03:16:26.975Z,100454.63
2023-03-22T03:19:10.499Z,100453.62
2023-03-22T03:21:47.639Z,100457.47
2023-03-22T03:24:26.840Z,100462.28
2023-03-22T03:27:01.490Z,100462.89
2023-03-22T03:30:02.480Z,100467.05
2023-03-22T03:32:35.027Z,100471.32
2023-03-22T03:35:21.776Z,100467.82
2023-03-22T03:37:53.089Z,100468.45
2023-03-22T03:40:33.262Z,100470.76
2023-03-22T03:43:03.060Z,100474.14
2023-03-22T03:45:30.901Z,100476.44
2023-03-22T03:48:02.927Z,100476.12
2023-03-22T03:50:29.917Z,100473.02
2023-03-22T03:52:57.094Z,100472.27
2023-03-22T03:55:24.426Z,100469.82
2023-03-22T03:57:51.676Z,100473.81
2023-03-22T04:00:19.022Z,100472.03
2023-03-22T04:03:05.430Z,100474.84
2023-03-22T04:05:55.472Z,100471.92
2023-03-22T04:08:22.936Z,100472.35
2023-03-22T04:10:51.387Z,100476.16
2023-03-22T04:13:24.755Z,100481.84
2023-03-22T04:15:53.811Z,100480.63
2023-03-22T04:18:29.203Z,100481.97
2023-03-22T04:20:56.990Z,100488.28
2023-03-22T04:23:25.487Z,100492.70
2023-03-22T04:25:59.147Z,100495.52
2023-03-22T04:28:34.287Z,100495.24
2023-03-22T04:31:08.109Z,100497.25
2023-03-22T04:34:05.040Z,100491.51
2023-03-22T04:36:49.272Z,100496.23
2023-03-22T04:39:27.073Z,100495.39
2023-03-22T04:42:14.475Z,100494.13
2023-03-22T04:44:43.206Z,100492.38
2023-03-22T04:47:10.326Z,100493.35
2023-03-22T04:49:42.422Z,100494.96
2023-03-22T04:52:11.450Z,100496.79
2023-03-22T04:54:40.343Z,100502.93
2023-03-22T04:57:09.884Z,100505.28
2023-03-22T04:59:41.223Z,100511.39
2023-03-22T05:02:08.475Z,100519.25
2023-03-22T05:04:43.309Z,100516.40
2023-03-22T05:07:33.151Z,100519.22
2023-03-22T05:10:02.590Z,100525.64
2023-03-22T05:12:31.531Z,100530.26
2023-03-22T05:15:20.720Z,100530.11
2023-03-22T05:17:48.220Z,100531.11
2023-03-22T05:20:15.522Z,100532.58
2023-03-22T05:22:50.209Z,100531.66
2023-03-22T05:25:44.682Z,100532.30
2023-03-22T05:28:19.063Z,100529.13
2023-03-22T05:30:57.481Z,100528.60
2023-03-22T05:33:34.388Z,100531.46
2023-03-22T05:36:01.978Z,100533.18
2023-03-22T05:38:31.112Z,100533.52
2023-03-22T05:40:59.882Z,100535.34
2023-03-22T05:43:27.387Z,100532.47
2023-03-22T05:45:55.219Z,100530.86
2023-03-22T05:48:33.407Z,100533.19
2023-03-22T05:51:00.422Z,100529.63
2023-03-22T05:53:31.419Z,100533.58
2023-03-22T05:56:26.242Z,100535.40
2023-03-22T05:59:02.238Z,100537.98
2023-03-22T06:01:30.657Z,100538.11
2023-03-22T06:04:16.334Z,100541.19
2023-03-22T06:06:53.834Z,100545.12
2023-03-22T06:09:33.598Z,100550.48
2023-03-22T06:12:00.672Z,100557.84
2023-03-22T06:14:27.486Z,100561.83
2023-03-22T06:17:15.566Z,100569.13
2023-03-22T06:19:43.717Z,100572.80
2023-03-22T06:22:32.936Z,100568.04
2023-03-22T06:25:00.757Z,100569.73
2023-03-22T06:27:40.688Z,100572.13
2023-03-22T06:30:08.436Z,100575.58
2023-03-22T06:32:46.517Z,100583.88
2023-03-22T06:35:14.685Z,100585.65
2023-03-22T06:37:41.815Z,100583.08
2023-03-22T06:40:12.108Z,100589.36
2023-03-22T06:42:40.260Z,100589.52
2023-03-22T06:45:10.253Z,100590.79
2023-03-22T06:47:38.780Z,100588.06
2023-03-22T06:50:06.005Z,100586.36
2023-03-22T06:53:10.829Z,100586.67
2023-03-22T06:55:39.490Z,100584.69
2023-03-22T06:58:19.540Z,100583.13
2023-03-22T07:00:46.361Z,100586.83
2023-03-22T07:03:13.792Z,100583.01
2023-03-22T07:05:52.456Z,100585.35
2023-03-22T07:08:20.350Z,100584.85
2023-03-22T07:10:50.689Z,100585.98
2023-03-22T07:13:20.746Z,100584.41
2023-03-22T07:15:48.428Z,100585.63
2023-03-22T07:18:37.246Z,100586.71
2023-03-22T07:21:06.895Z,100588.57
2023-03-22T07:23:35.178Z,100587.57
2023-03-22T07:26:06.582Z,100592.27
2023-03-22T07:28:35.052Z,100589.09
2023-03-22T07:31:11.027Z,100594.20
2023-03-22T07:34:04.204Z,100595.44
2023-03-22T07:36:37.764Z,100598.10
2023-03-22T07:39:05.831Z,100603.13
2023-03-22T07:41:35.085Z,100597.98
2023-03-22T07:44:19.445Z,100601.97
2023-03-22T07:46:52.026Z,100603.99
2023-03-22T07:49:28.185Z,100604.00
2023-03-22T07:52:15.656Z,100604.77
2023-03-22T07:54:44.815Z,100603.98
2023-03-22T07:57:14.465Z,100604.63
2023-03-22T07:59:46.556Z,100605.27
2023-03-22T08:02:14.030Z,100601.42
2023-03-22T08:04:45.834Z,100602.81
2023-03-22T08:07:37.134Z,100605.13
2023-03-22T08:10:05.527Z,100607.17
2023-03-22T08:12:33.542Z,100607.77
2023-03-22T08:15:09.095Z,100602.98
2023-03-22T08:17:36.727Z,100603.64
2023-03-22T08:20:08.339Z,100605.64
2023-03-22T08:22:45.590Z,100604.12
2023-03-22T08:25:29.210Z,100606.61
2023-03-22T08:28:03.787Z,100604.84
2023-03-22T08:30:32.293Z,100603.39
2023-03-22T08:32:59.188Z,100600.52
2023-03-22T08:35:27.186Z,100604.45
2023-03-22T08:37:55.278Z,100605.80
2023-03-22T08:40:26.660Z,100604.64
2023-03-22T08:43:00.958Z,100604.09
2023-03-22T08:45:29.524Z,100610.27
2023-03-22T08:48:04.456Z,100608.84
2023-03-22T08:50:35.675Z,100608.54
2023-03-22T08:53:13.392Z,100608.42
2023-03-22T08:55:44.354Z,100611.45
2023-03-22T08:58:12.535Z,100608.77
2023-03-22T09:00:48.901Z,100606.93
2023-03-22T09:03:24.441Z,100606.57
2023-03-22T09:05:52.951Z,100603.54
2023-03-22T09:08:24.165Z,100605.36
2023-03-22T09:10:57.394Z,100602.45
2023-03-22T09:13:24.628Z,100605.75
2023-03-22T09:16:02.370Z,100607.59
2023-03-22T09:18:34.168Z,100608.88
2023-03-22T09:21:05.013Z,100611.00
2023-03-22T09:23:41.493Z,100613.08
2023-03-22T09:26:10.056Z,100612.30
2023-03-22T09:28:37.940Z,100609.29
2023-03-22T09:31:07.503Z,100612.08
2023-03-22T09:33:35.782Z,100606.08
2023-03-22T09:36:04.037Z,100609.81
2023-03-22T09:38:38.374Z,100612.63
2023-03-22T09:41:06.678Z,100618.44
2023-03-22T09:43:42.131Z,100615.02
2023-03-22T09:46:22.099Z,100614.22
2023-03-22T09:48:49.443Z,100610.95
2023-03-22T09:51:41.809Z,100612.78
2023-03-22T09:54:32.933Z,100607.38
2023-03-22T09:57:20.955Z,100609.39
2023-03-22T10:00:16.025Z,100606.38
2023-03-22T10:03:06.125Z,100609.13
2023-03-22T10:05:57.904Z,100609.66
2023-03-22T10:08:36.564Z,100604.64
2023-03-22T10:11:27.259Z,100603.36
2023-03-22T10:14:02.061Z,100601.58
2023-03-22T10:16:33.662Z,100598.41
2023-03-22T10:19:20.520Z,100597.17
2023-03-22T10:21:52.583Z,100595.18
2023-03-22T10:24:35.137Z,100592.23
2023-03-22T10:27:02.034Z,100591.27
2023-03-22T10:29:35.912Z,100587.70
2023-03-22T10:32:56.389Z,100590.18
2023-03-22T10:35:41.748Z,100585.59
2023-03-22T10:38:13.123Z,100584.75
2023-03-22T10:40:42.217Z,100584.98
2023-03-22T10:43:40.972Z,100586.59
2023-03-22T10:46:42.342Z,100580.86
2023-03-22T10:49:43.087Z,100585.29
2023-03-22T10:52:44.279Z,100580.79
2023-03-22T10:55:24.758Z,100583.00
2023-03-22T10:58:22.354Z,100581.88
2023-03-22T11:01:08.316Z,100583.55
2023-03-22T11:04:02.292Z,100581.89
2023-03-22T11:06:37.883Z,100579.95
2023-03-22T11:09:32.255Z,100579.09
2023-03-22T11:12:32.132Z,100576.68
2023-03-22T11:16:02.590Z,100573.20
2023-03-22T11:18:59.207Z,100572.85
2023-03-22T11:21:55.841Z,100569.48
2023-03-22T11:24:58.244Z,100565.66
2023-03-22T11:28:23.209Z,100563.64
2023-03-22T11:31:19.910Z,100562.61
2023-03-22T11:34:15.170Z,100559.47
2023-03-22T11:37:07.206Z,100554.42
2023-03-22T11:40:11.440Z,100555.09
2023-03-22T11:43:08.204Z,100554.20
2023-03-22T11:46:12.579Z,100555.11
2023-03-22T11:49:06.467Z,100552.88
2023-03-22T11:52:21.246Z,100548.39
2023-03-22T11:55:19.585Z,100544.69
2023-03-22T11:58:11.395Z,100547.95
2023-03-22T12:00:53.318Z,100546.05
2023-03-22T12:03:55.358Z,100544.83
2023-03-22T12:35:52.347Z,100532.30
2023-03-22T13:33:23.451Z,100509.67
2023-03-22T13:41:27.378Z,100509.83
2023-03-22T13:54:42.234Z,100510.73
2023-03-22T13:57:16.964Z,100507.16
2023-03-22T14:00:09.553Z,100506.69
